Time;durP1;ratioP1;P1;durP2;ratioP2;P2;SDS_P1;SDS_P2;PMS_P1;PMS_P2;Temp;Humidity;BMP_temperature;BMP_pressure;BME280_temperature;BME280_humidity;BME280_pressure;Samples;Min_cycle;Max_cycle;Signal;HPM_P1;HPM_P2
2023/04/19 06:56:01;;;;;;;20.27;14.50;;;7.40;99.90;;;;;;5115745;27;20628;-80
2023/04/19 07:03:39;;;;;;;19.90;13.87;;;7.30;99.90;;;;;;5095960;27;20557;-79
2023/04/19 08:14:22;;;;;;;30.17;18.73;;;7.10;99.90;;;;;;5137769;27;20639;-80
2023/04/19 08:53:05;;;;;;;28.47;18.13;;;7.00;99.90;;;;;;5097671;28;20602;-81
2023/04/19 08:59:56;;;;;;;35.27;19.73;;;7.20;99.90;;;;;;5140124;27;20639;-82
2023/04/19 09:07:44;;;;;;;37.13;21.23;;;7.30;99.90;;;;;;5138446;27;20272;-82
2023/04/19 09:16:22;;;;;;;40.83;23.23;;;7.40;99.90;;;;;;5138239;27;20297;-80
2023/04/19 09:23:29;;;;;;;41.37;21.97;;;7.20;99.90;;;;;;5138152;27;20275;-82
2023/04/19 09:30:38;;;;;;;39.77;22.87;;;7.50;99.90;;;;;;5138401;27;20271;-82
2023/04/19 09:36:56;;;;;;;34.33;20.93;;;7.70;99.90;;;;;;5138439;27;20271;-80
2023/04/19 09:42:46;;;;;;;37.00;21.90;;;7.40;99.90;;;;;;5138460;27;20280;-80
2023/04/19 09:46:54;;;;;;;43.70;23.03;;;7.60;99.90;;;;;;5138285;27;20607;-80
2023/04/19 09:51:58;;;;;;;36.23;22.17;;;7.70;99.90;;;;;;5138587;27;20276;-81
2023/04/19 09:57:18;;;;;;;35.97;20.73;;;;;;;;;;5138709;27;20277;-80
2023/04/19 10:01:58;;;;;;;29.63;19.30;;;8.30;99.90;;;;;;5138422;27;20271;-81
2023/04/19 10:06:08;;;;;;;33.13;21.93;;;8.40;99.90;;;;;;5133313;27;20753;-77
2023/04/19 10:10:09;;;;;;;27.73;18.63;;;8.40;99.90;;;;;;5132976;27;20271;-77
2023/04/19 10:14:10;;;;;;;33.70;20.03;;;8.50;99.90;;;;;;5133103;27;20289;-78
2023/04/19 10:18:31;;;;;;;34.93;20.13;;;8.40;99.90;;;;;;5133084;27;20267;-78
2023/04/19 10:25:18;;;;;;;37.83;21.37;;;8.00;99.90;;;;;;5132750;27;20632;-78
2023/04/19 10:30:21;;;;;;;37.43;24.00;;;8.20;99.90;;;;;;5132559;27;20270;-77
2023/04/19 10:35:34;;;;;;;31.97;19.50;;;8.40;99.90;;;;;;5133813;27;20635;-78
2023/04/19 10:40:07;;;;;;;25.23;18.33;;;8.40;99.90;;;;;;5132916;27;20267;-78
2023/04/19 10:48:03;;;;;;;28.37;18.23;;;8.40;99.90;;;;;;5136448;27;20608;-79
2023/04/19 10:55:10;;;;;;;26.87;16.70;;;8.30;99.90;;;;;;5138355;27;20291;-80
2023/04/19 11:02:21;;;;;;;31.93;16.57;;;;;;;;;;5135538;27;20278;-80
2023/04/19 11:08:54;;;;;;;21.23;15.10;;;8.30;99.90;;;;;;5137150;27;20271;-79
2023/04/19 11:14:07;;;;;;;26.43;17.97;;;8.80;99.90;;;;;;5137309;27;20297;-79
2023/04/19 11:20:29;;;;;;;27.40;15.63;;;8.50;99.90;;;;;;5137299;27;20268;-80
2023/04/19 11:26:11;;;;;;;21.50;14.87;;;8.70;99.90;;;;;;5117371;27;20280;-80
2023/04/19 11:32:56;;;;;;;23.83;15.03;;;8.80;99.90;;;;;;5135338;27;20632;-78
2023/04/19 11:36:51;;;;;;;27.33;16.30;;;8.80;99.90;;;;;;5134702;27;20284;-78
2023/04/19 11:40:27;;;;;;;31.67;18.07;;;9.00;99.90;;;;;;5114287;27;20276;-78
2023/04/19 11:42:59;;;;;;;23.20;15.63;;;9.30;99.90;;;;;;5115356;28;20160;-79
2023/04/19 11:45:28;;;;;;;28.47;17.70;;;9.20;99.90;;;;;;5116580;28;20191;-81
2023/04/19 11:47:54;;;;;;;24.63;16.53;;;;;;;;;;5097679;28;20176;-81
2023/04/19 11:50:39;;;;;;;30.33;19.07;;;9.30;99.90;;;;;;5127349;28;20536;-80
2023/04/19 11:53:19;;;;;;;25.93;16.13;;;9.40;99.90;;;;;;5102820;28;20183;-80
2023/04/19 11:56:10;;;;;;;29.77;17.80;;;9.30;99.90;;;;;;5116547;28;20278;-79
2023/04/19 11:58:44;;;;;;;24.40;15.50;;;9.20;99.90;;;;;;5098616;28;20205;-79
2023/04/19 12:03:15;;;;;;;23.83;15.57;;;9.10;99.90;;;;;;5135395;27;20637;-79
2023/04/19 12:07:16;;;;;;;26.63;17.20;;;9.40;99.90;;;;;;5134542;27;20752;-79
2023/04/19 12:09:42;;;;;;;30.90;17.47;;;9.30;99.90;;;;;;5134460;28;20258;-79
2023/04/19 12:12:08;;;;;;;29.77;19.73;;;9.60;99.90;;;;;;5115686;28;20534;-78
2023/04/19 12:14:34;;;;;;;25.33;16.17;;;;;;;;;;5119147;28;20206;-79
2023/04/19 12:17:14;;;;;;;24.90;15.93;;;10.20;99.90;;;;;;5135638;27;20163;-79
2023/04/19 12:19:45;;;;;;;26.43;16.07;;;10.50;99.90;;;;;;5134206;28;20190;-79
2023/04/19 12:22:16;;;;;;;24.07;16.20;;;10.60;99.90;;;;;;5135820;27;20171;-80
2023/04/19 12:24:43;;;;;;;24.27;16.13;;;10.70;99.90;;;;;;5137159;28;20202;-79
2023/04/19 12:27:10;;;;;;;24.10;15.43;;;11.00;99.90;;;;;;5136373;28;20671;-80
2023/04/19 12:29:36;;;;;;;23.37;13.83;;;11.20;99.90;;;;;;5137415;28;20175;-80
2023/04/19 12:32:02;;;;;;;22.27;13.37;;;11.10;99.90;;;;;;5137504;27;20171;-79
2023/04/19 12:34:28;;;;;;;20.13;13.90;;;11.50;99.90;;;;;;5135463;28;20197;-78
2023/04/19 12:36:54;;;;;;;20.37;12.73;;;11.50;99.90;;;;;;5134465;28;20270;-79
2023/04/19 12:39:20;;;;;;;21.70;13.60;;;11.70;99.90;;;;;;5132946;28;20175;-79
2023/04/19 12:41:47;;;;;;;21.87;14.40;;;;;;;;;;5134557;27;20220;-79
2023/04/19 12:44:14;;;;;;;21.30;13.53;;;11.30;99.90;;;;;;5135184;27;20558;-79
2023/04/19 12:46:40;;;;;;;22.67;14.47;;;11.10;99.90;;;;;;5133200;28;20198;-78
2023/04/19 12:49:06;;;;;;;22.07;13.53;;;11.00;99.90;;;;;;5131726;28;20182;-80
2023/04/19 12:51:32;;;;;;;20.43;12.83;;;;;;;;;;5131046;28;20269;-77
2023/04/19 12:53:58;;;;;;;17.87;11.93;;;10.60;99.90;;;;;;5131527;27;20202;-78
2023/04/19 12:56:25;;;;;;;20.40;13.33;;;10.50;99.90;;;;;;5131882;27;20249;-77
2023/04/19 12:58:50;;;;;;;18.37;12.80;;;10.40;99.90;;;;;;5129964;28;20182;-77
2023/04/19 13:01:16;;;;;;;17.20;11.63;;;10.40;99.90;;;;;;5130339;28;20632;-77
2023/04/19 13:03:42;;;;;;;18.80;12.63;;;10.30;99.90;;;;;;5130337;28;20220;-78
2023/04/19 13:10:26;;;;;;;21.50;12.93;;;10.00;99.90;;;;;;5131357;27;20271;-77
2023/04/19 13:17:24;;;;;;;19.13;14.17;;;9.90;99.90;;;;;;5131748;27;20267;-77
2023/04/19 13:24:47;;;;;;;18.83;13.07;;;9.90;99.90;;;;;;5090841;28;20990;-77
2023/04/19 13:49:19;;;;;;;17.80;13.03;;;;;;;;;;5133695;27;20281;-78
2023/04/19 13:55:35;;;;;;;16.10;11.03;;;8.70;99.90;;;;;;5135046;27;20283;-79
2023/04/19 14:02:55;;;;;;;14.23;9.77;;;8.00;99.90;;;;;;5136302;27;20273;-79
2023/04/19 14:22:22;;;;;;;16.47;12.47;;;7.80;99.90;;;;;;5136735;27;20271;-79
2023/04/19 14:26:56;;;;;;;21.27;11.50;;;8.00;99.90;;;;;;5137379;27;20267;-81
2023/04/19 14:30:51;;;;;;;15.90;10.23;;;8.20;99.90;;;;;;5136886;27;20276;-79
2023/04/19 14:56:15;;;;;;;5.43;3.97;;;7.30;99.90;;;;;;5136426;27;20271;-81
2023/04/19 15:09:31;;;;;;;3.57;2.90;;;7.20;99.90;;;;;;5136566;27;20271;-80
2023/04/19 15:16:55;;;;;;;3.77;2.23;;;7.10;99.90;;;;;;5136985;27;20280;-81
2023/04/19 15:22:46;;;;;;;4.47;2.77;;;7.20;99.90;;;;;;5137212;27;20280;-80
2023/04/19 15:29:25;;;;;;;8.20;2.40;;;6.90;99.90;;;;;;5133451;27;20271;-78
